Time;durP1;ratioP1;P1;durP2;ratioP2;P2;SDS_P1;SDS_P2;PMS_P1;PMS_P2;Temp;Humidity;BMP_temperature;BMP_pressure;BME280_temperature;BME280_humidity;BME280_pressure;Samples;Min_cycle;Max_cycle;Signal;HPM_P1;HPM_P2
2022/08/08 00:02:03;;;;;;;6.07;2.97;;;;;;;23.04;49.74;98741.25;5055642;28;20031;-47
2022/08/08 00:05:06;;;;;;;7.22;3.60;;;;;;;22.94;50.36;98740.25;5042973;28;20122;-48
2022/08/08 00:08:08;;;;;;;5.70;2.70;;;;;;;22.89;50.15;98734.13;5073101;28;20055;-47
2022/08/08 00:10:54;;;;;;;7.28;3.10;;;;;;;22.96;49.67;98734.63;4975586;28;20019;-47
2022/08/08 00:13:52;;;;;;;6.68;2.70;;;;;;;23.00;49.85;98732.97;4975624;28;20038;-47
2022/08/08 00:16:30;;;;;;;2.90;2.58;;;;;;;22.96;49.77;98739.16;4991453;28;20038;-48
2022/08/08 00:19:02;;;;;;;4.78;3.13;;;;;;;22.82;50.70;98733.63;4991835;28;20042;-47
2022/08/08 00:21:37;;;;;;;8.52;3.40;;;;;;;22.70;51.32;98720.66;4975412;28;20026;-48
2022/08/08 00:24:13;;;;;;;5.60;2.70;;;;;;;22.80;50.99;98725.91;4991774;28;20052;-47
2022/08/08 00:26:45;;;;;;;4.78;2.42;;;;;;;22.76;50.25;98718.72;4991627;28;20058;-47
2022/08/08 00:29:21;;;;;;;5.97;2.95;;;;;;;22.82;50.62;98722.94;4991358;28;20078;-48
2022/08/08 00:31:52;;;;;;;3.85;2.90;;;;;;;22.90;50.73;98730.41;4991504;28;20034;-47
2022/08/08 00:37:41;;;;;;;7.32;2.97;;;;;;;22.63;51.41;98723.63;4991401;28;20044;-47
2022/08/08 00:40:12;;;;;;;5.47;2.90;;;;;;;22.59;51.52;98727.13;4991503;28;20105;-47
2022/08/08 00:42:59;;;;;;;8.15;3.20;;;;;;;22.58;51.38;98734.38;4991419;28;20030;-46
2022/08/08 00:45:52;;;;;;;8.88;3.50;;;;;;;22.62;51.62;98730.06;5043564;28;20611;-48
2022/08/08 00:48:32;;;;;;;5.97;2.95;;;;;;;22.51;51.70;98726.63;5072715;28;20085;-47
2022/08/08 00:51:34;;;;;;;7.57;2.58;;;;;;;22.41;51.43;98737.41;5054714;28;20028;-49
2022/08/08 00:54:32;;;;;;;6.93;3.20;;;;;;;22.40;51.52;98724.31;5072700;28;20032;-49
2022/08/08 00:57:19;;;;;;;2.70;2.50;;;;;;;22.32;51.45;98731.06;5072435;28;20032;-50
2022/08/08 01:00:24;;;;;;;7.38;2.88;;;;;;;22.19;51.77;98732.41;5072405;28;20028;-48
2022/08/08 01:03:10;;;;;;;3.47;2.65;;;;;;;22.22;51.69;98731.09;4974632;28;20030;-48
2022/08/08 01:05:57;;;;;;;7.18;3.20;;;;;;;22.13;52.49;98729.00;4990976;28;20035;-47
2022/08/08 01:08:55;;;;;;;3.40;3.00;;;;;;;21.98;52.93;98729.03;4974578;28;20088;-48
2022/08/08 01:11:58;;;;;;;7.03;3.10;;;;;;;21.82;53.37;98732.84;4990808;28;20113;-47
2022/08/08 01:14:41;;;;;;;5.40;3.10;;;;;;;21.68;53.76;98721.94;4990885;28;20093;-46
2022/08/08 01:17:18;;;;;;;3.10;2.80;;;;;;;21.59;54.18;98724.38;4974496;28;20038;-49
2022/08/08 01:20:19;;;;;;;3.53;3.08;;;;;;;21.43;54.70;98722.81;4990796;28;20038;-49
2022/08/08 01:23:18;;;;;;;4.55;3.35;;;;;;;21.27;55.18;98722.00;4990228;28;20101;-49
2022/08/08 01:26:01;;;;;;;6.15;2.83;;;;;;;21.26;54.88;98721.19;4990672;28;20045;-48
2022/08/08 01:28:30;;;;;;;3.85;2.90;;;;;;;21.33;54.51;98724.41;4990286;28;20129;-49
2022/08/08 01:31:26;;;;;;;3.38;3.08;;;;;;;21.45;54.55;98737.50;4990585;28;20034;-48
2022/08/08 01:34:22;;;;;;;5.88;3.80;;;;;;;21.48;54.28;98736.16;5039762;28;20033;-49
2022/08/08 01:37:14;;;;;;;5.50;3.15;;;;;;;21.48;54.20;98723.59;5071945;28;20025;-49
2022/08/08 01:39:58;;;;;;;7.47;3.85;;;;;;;21.43;54.81;98734.31;5071906;28;20029;-49
2022/08/08 01:42:33;;;;;;;3.40;3.08;;;;;;;21.33;54.67;98740.44;5071854;28;20486;-48
2022/08/08 01:45:05;;;;;;;;;;;;;;;21.25;54.32;98737.47;5054254;28;20024;-49
2022/08/08 01:47:46;;;;;;;7.43;2.60;;;;;;;21.09;55.03;98736.72;5071809;28;19908;-48
2022/08/08 01:50:22;;;;;;;3.40;3.10;;;;;;;21.00;55.38;98732.97;5071813;28;20032;-49
2022/08/08 01:53:01;;;;;;;4.72;2.95;;;;;;;20.84;55.89;98738.31;5071802;28;20040;-49
2022/08/08 01:56:02;;;;;;;6.80;3.40;;;;;;;20.75;56.08;98732.69;5071959;28;20441;-49
2022/08/08 01:59:07;;;;;;;7.85;3.40;;;;;;;20.73;56.22;98734.84;5071687;28;20055;-49
2022/08/08 02:01:59;;;;;;;11.48;3.50;;;;;;;20.91;55.75;98738.06;5053745;28;20028;-49
2022/08/08 02:04:36;;;;;;;6.20;3.50;;;;;;;21.07;55.02;98741.53;5071723;28;20455;-48
2022/08/08 02:07:48;;;;;;;6.00;3.17;;;;;;;21.19;54.72;98736.72;5053619;28;20120;-49
2022/08/08 02:10:32;;;;;;;8.48;3.00;;;;;;;21.32;53.59;98738.81;5047302;28;20075;-48
2022/08/08 02:13:21;;;;;;;15.93;3.67;;;;;;;21.45;52.42;98742.84;5075759;28;20027;-49
2022/08/08 02:16:13;;;;;;;8.20;2.83;;;;;;;21.47;50.89;98745.22;5075626;28;20047;-49
2022/08/08 02:18:44;;;;;;;4.03;2.60;;;;;;;21.46;52.26;98746.31;5075795;28;20032;-48
2022/08/08 02:24:29;;;;;;;6.22;2.42;;;;;;;21.34;49.90;98752.69;5075532;28;20063;-49
2022/08/08 02:27:05;;;;;;;3.90;2.58;;;;;;;21.37;49.78;98753.22;5075443;28;20056;-49
2022/08/08 02:30:25;;;;;;;9.27;2.70;;;;;;;21.42;50.91;98755.91;5075159;28;20068;-49
2022/08/08 02:33:00;;;;;;;7.22;2.28;;;;;;;21.44;50.58;98757.25;5041297;28;20051;-48
2022/08/08 02:35:42;;;;;;;2.60;2.30;;;;;;;21.40;50.97;98764.16;5075258;28;20087;-49
2022/08/08 02:38:08;;;;;;;4.15;2.50;;;;;;;21.33;50.35;98761.78;5057318;28;20414;-50
2022/08/08 02:41:04;;;;;;;5.40;2.58;;;;;;;21.31;49.06;98755.91;5075107;28;20032;-49
2022/08/08 02:43:54;;;;;;;13.85;3.03;;;;;;;21.39;48.50;98759.91;5075093;28;20482;-49
2022/08/08 02:46:48;;;;;;;6.63;2.40;;;;;;;21.47;48.10;98767.41;5074998;28;20032;-49
2022/08/08 02:49:44;;;;;;;7.18;2.13;;;;;;;21.48;47.98;98766.31;5074982;28;20021;-49
2022/08/08 02:52:26;;;;;;;6.70;2.42;;;;;;;21.48;49.20;98770.88;5074866;28;20093;-49
2022/08/08 02:55:10;;;;;;;7.40;2.63;;;;;;;21.46;48.09;98765.78;5074935;28;20547;-49
2022/08/08 02:58:07;;;;;;;2.60;2.03;;;;;;;21.45;47.80;98771.41;5074713;28;20505;-48
2022/08/08 03:01:14;;;;;;;4.85;2.30;;;;;;;21.51;46.88;98767.63;5074755;28;20448;-49
2022/08/08 03:04:01;;;;;;;6.72;2.50;;;;;;;21.59;46.03;98775.13;5019684;28;20554;-49
2022/08/08 03:06:28;;;;;;;10.05;3.00;;;;;;;21.68;46.36;98770.81;5056728;28;20044;-48
2022/08/08 03:09:41;;;;;;;8.10;2.53;;;;;;;21.77;45.87;98772.94;5074654;28;20017;-49
2022/08/08 03:12:45;;;;;;;6.28;1.80;;;;;;;21.81;45.20;98771.31;4992995;28;20519;-49
2022/08/08 03:15:51;;;;;;;10.05;2.55;;;;;;;21.74;46.28;98783.09;4992916;28;20492;-49
2022/08/08 03:18:25;;;;;;;8.38;1.95;;;;;;;21.64;45.97;98780.44;4985349;28;20049;-49
2022/08/08 03:20:52;;;;;;;3.67;2.25;;;;;;;21.53;46.25;98786.88;4976445;28;20050;-49
2022/08/08 03:23:19;;;;;;;7.82;2.50;;;;;;;21.50;46.20;98787.41;4992862;28;20042;-49
2022/08/08 03:25:46;;;;;;;4.50;2.25;;;;;;;21.47;46.24;98790.63;4992753;28;20027;-50
2022/08/08 03:28:19;;;;;;;6.20;2.30;;;;;;;21.48;46.10;98793.03;4992393;28;20520;-50
2022/08/08 03:30:46;;;;;;;7.28;2.25;;;;;;;21.44;45.64;98788.50;4992697;28;20081;-49
2022/08/08 03:33:17;;;;;;;5.85;1.95;;;;;;;21.43;45.79;98784.22;4973132;28;20074;-49
2022/08/08 03:35:47;;;;;;;9.70;1.88;;;;;;;21.41;45.50;98786.31;4975422;28;20031;-48
2022/08/08 03:38:19;;;;;;;4.80;2.42;;;;;;;21.34;45.78;98787.41;4992590;28;20054;-49
2022/08/08 03:40:51;;;;;;;11.73;2.15;;;;;;;21.27;45.79;98800.22;4992653;28;20032;-49
2022/08/08 03:43:16;;;;;;;4.75;1.92;;;;;;;21.22;45.69;98799.44;4992373;28;20403;-49
2022/08/08 03:45:42;;;;;;;7.78;1.70;;;;;;;21.11;45.79;98798.63;4975319;28;20122;-48
2022/08/08 03:48:09;;;;;;;8.90;2.85;;;;;;;21.05;47.20;98799.69;5020022;28;20032;-48
2022/08/08 03:50:46;;;;;;;2.47;1.50;;;;;;;21.05;45.88;98800.50;5055882;28;20075;-49
2022/08/08 03:53:15;;;;;;;5.25;1.83;;;;;;;21.01;45.70;98804.75;5073801;28;20064;-48
2022/08/08 03:55:49;;;;;;;8.02;2.28;;;;;;;21.02;46.60;98810.88;5055714;28;20108;-49
2022/08/08 03:58:24;;;;;;;9.15;3.45;;;;;;;21.03;47.89;98805.28;5074046;28;20028;-49
2022/08/08 04:00:55;;;;;;;4.22;2.33;;;;;;;20.93;48.93;98807.97;5073678;28;20050;-49
2022/08/08 04:03:22;;;;;;;5.93;2.95;;;;;;;20.67;49.69;98815.13;5073673;28;20021;-49
2022/08/08 04:05:49;;;;;;;8.05;3.03;;;;;;;20.46;51.25;98812.34;5073574;28;20070;-49
2022/08/08 04:08:21;;;;;;;10.07;3.03;;;;;;;20.25;52.36;98813.34;5073497;28;20436;-49
2022/08/08 04:10:49;;;;;;;10.32;3.88;;;;;;;20.09;53.69;98818.59;5073518;28;20438;-49
2022/08/08 04:13:17;;;;;;;10.52;3.58;;;;;;;19.92;54.12;98813.47;5055787;28;20490;-49
2022/08/08 04:15:43;;;;;;;7.63;3.65;;;;;;;19.87;54.98;98816.06;5073285;28;20095;-48
2022/08/08 04:18:09;;;;;;;8.65;3.30;;;;;;;20.06;54.91;98819.13;5055365;28;20031;-48
2022/08/08 04:20:35;;;;;;;17.05;4.20;;;;;;;20.21;54.40;98823.72;5073594;28;20028;-49
2022/08/08 04:23:01;;;;;;;7.20;3.42;;;;;;;20.20;54.08;98829.28;5055243;28;20397;-48
2022/08/08 04:25:26;;;;;;;7.07;3.55;;;;;;;20.02;54.28;98823.38;5055247;28;20490;-48
2022/08/08 04:27:52;;;;;;;8.90;3.70;;;;;;;19.84;54.71;98823.78;5072940;28;20465;-48
2022/08/08 04:30:18;;;;;;;4.50;3.13;;;;;;;19.70;54.66;98834.06;5055366;28;20036;-49
2022/08/08 04:32:43;;;;;;;10.65;3.20;;;;;;;19.59;54.48;98833.19;5072487;28;20076;-48
2022/08/08 04:35:09;;;;;;;20.02;4.03;;;;;;;19.51;54.20;98836.31;5072967;28;20371;-48
2022/08/08 04:37:34;;;;;;;5.78;2.53;;;;;;;19.48;54.06;98826.19;5072878;28;20083;-49
2022/08/08 04:40:01;;;;;;;4.40;2.25;;;;;;;19.49;53.60;98836.56;5055014;28;20494;-49
2022/08/08 04:42:29;;;;;;;6.65;2.95;;;;;;;19.36;53.48;98837.00;5072782;28;20044;-48
2022/08/08 04:44:56;;;;;;;7.70;2.75;;;;;;;19.23;53.89;98838.22;5054784;28;20021;-49
2022/08/08 04:47:22;;;;;;;6.60;2.30;;;;;;;19.14;54.04;98840.53;5072631;28;20442;-49
2022/08/08 04:49:48;;;;;;;9.10;2.70;;;;;;;19.19;53.54;98839.78;5054746;28;20031;-49
2022/08/08 04:52:13;;;;;;;14.35;3.00;;;;;;;19.35;52.61;98841.50;5072842;28;20031;-49
2022/08/08 04:54:39;;;;;;;13.20;2.95;;;;;;;19.56;52.16;98847.81;5072546;28;20498;-49
2022/08/08 04:57:05;;;;;;;6.80;2.58;;;;;;;19.85;51.45;98847.50;5072451;28;20104;-49
2022/08/08 04:59:30;;;;;;;3.33;2.50;;;;;;;20.40;50.45;98855.25;5072527;28;20060;-49
2022/08/08 05:01:56;;;;;;;4.53;2.92;;;;;;;21.15;48.69;98848.53;5072462;28;20149;-49
2022/08/08 05:04:22;;;;;;;7.22;2.83;;;;;;;21.80;47.06;98850.69;5072404;28;20107;-47
2022/08/08 05:06:47;;;;;;;8.60;2.95;;;;;;;22.40;46.23;98850.81;5072328;28;20100;-49
2022/08/08 05:09:13;;;;;;;11.57;3.55;;;;;;;23.07;45.91;98855.81;5072366;28;20102;-49
2022/08/08 05:11:40;;;;;;;10.45;3.08;;;;;;;23.83;44.69;98856.31;5072239;28;20032;-49
2022/08/08 05:14:07;;;;;;;5.90;3.08;;;;;;;24.42;43.07;98865.81;5072289;28;20401;-49
2022/08/08 05:16:32;;;;;;;5.32;2.97;;;;;;;24.87;41.70;98866.34;5072073;28;20070;-49
2022/08/08 05:18:58;;;;;;;8.88;3.03;;;;;;;25.20;40.67;98863.72;5054275;28;20028;-49
2022/08/08 05:21:24;;;;;;;6.00;2.90;;;;;;;25.30;40.13;98862.78;5054078;28;20111;-50
2022/08/08 05:23:50;;;;;;;6.88;3.53;;;;;;;25.51;39.68;98865.94;5072110;28;20111;-49
2022/08/08 05:26:16;;;;;;;5.18;2.83;;;;;;;25.68;39.26;98870.78;5072030;28;20036;-49
2022/08/08 05:28:42;;;;;;;8.27;3.28;;;;;;;25.68;39.56;98868.88;5071824;28;20048;-49
2022/08/08 05:31:10;;;;;;;5.38;2.97;;;;;;;25.66;39.43;98873.75;5054006;28;20112;-49
2022/08/08 05:33:38;;;;;;;17.05;3.55;;;;;;;25.85;39.42;98865.59;5072196;28;20127;-48
2022/08/08 05:36:07;;;;;;;5.30;2.33;;;;;;;26.38;38.66;98868.94;5053809;28;20025;-50
2022/08/08 05:38:35;;;;;;;9.85;2.67;;;;;;;27.00;37.35;98873.84;5072120;28;20040;-49
2022/08/08 05:41:03;;;;;;;6.82;3.30;;;;;;;27.52;36.08;98865.38;5071862;28;20094;-49
2022/08/08 05:43:32;;;;;;;5.32;2.00;;;;;;;28.21;34.77;98873.03;5053884;28;20075;-49
2022/08/08 05:46:01;;;;;;;6.50;2.47;;;;;;;28.94;33.61;98865.25;5070977;28;20016;-49
2022/08/08 05:48:27;;;;;;;11.80;2.92;;;;;;;29.63;32.27;98875.22;5071809;28;20393;-49
2022/08/08 05:50:53;;;;;;;5.78;2.33;;;;;;;30.12;29.93;98872.19;5071767;28;20078;-50
2022/08/08 05:53:26;;;;;;;2.85;1.67;;;;;;;30.70;28.87;98872.53;5071798;28;20390;-49
2022/08/08 05:55:54;;;;;;;6.38;1.88;;;;;;;31.56;27.24;98864.81;5071645;28;20532;-50
2022/08/08 05:58:29;;;;;;;5.03;1.73;;;;;;;32.40;26.49;98864.44;5071747;28;20024;-48
2022/08/08 06:00:56;;;;;;;6.57;1.85;;;;;;;33.00;25.57;98861.16;5071971;28;20425;-49
2022/08/08 06:03:23;;;;;;;6.78;2.67;;;;;;;33.56;25.59;98866.56;5053661;28;20064;-48
2022/08/08 06:05:52;;;;;;;7.45;2.08;;;;;;;34.04;24.34;98869.34;5071581;28;20056;-50
2022/08/08 06:08:49;;;;;;;6.50;2.45;;;;;;;34.42;23.65;98874.16;5053629;28;20021;-50
2022/08/08 06:11:15;;;;;;;15.38;2.97;;;;;;;34.34;23.30;98860.72;5063821;28;20037;-48
2022/08/08 06:13:40;;;;;;;14.80;2.45;;;;;;;34.58;23.30;98855.03;5071596;28;20025;-49
2022/08/08 06:16:13;;;;;;;19.75;3.28;;;;;;;34.70;23.33;98870.50;5071440;28;20020;-49
2022/08/08 06:18:40;;;;;;;16.65;2.53;;;;;;;34.53;22.95;98866.22;5071604;28;20056;-49
2022/08/08 06:21:08;;;;;;;12.73;2.00;;;;;;;34.32;22.73;98871.19;5053462;28;20107;-49
2022/08/08 06:23:34;;;;;;;7.30;1.60;;;;;;;34.09;22.94;98869.09;5071461;28;20039;-48
2022/08/08 06:26:06;;;;;;;21.35;2.50;;;;;;;34.08;22.87;98874.88;5053450;28;20028;-48
2022/08/08 06:28:37;;;;;;;14.00;1.77;;;;;;;34.29;22.56;98877.34;5071220;28;20179;-49
2022/08/08 06:31:05;;;;;;;7.55;1.67;;;;;;;34.69;22.03;98873.56;5071463;28;20029;-49
2022/08/08 06:33:49;;;;;;;16.20;2.80;;;;;;;35.21;20.66;98872.31;5071377;28;20029;-48
2022/08/08 06:36:27;;;;;;;7.90;2.35;;;;;;;35.70;20.91;98874.41;5053363;28;20028;-50
2022/08/08 06:38:55;;;;;;;8.52;2.28;;;;;;;35.93;20.17;98877.13;5071335;28;20493;-50
2022/08/08 06:41:22;;;;;;;10.18;2.10;;;;;;;36.08;19.96;98877.34;5071315;28;20017;-49
2022/08/08 06:43:53;;;;;;;18.33;2.22;;;;;;;36.35;19.98;98878.97;5053266;28;20391;-47
2022/08/08 06:46:19;;;;;;;10.70;2.20;;;;;;;36.47;19.91;98877.19;5071300;28;20398;-48
2022/08/08 06:48:45;;;;;;;8.77;1.77;;;;;;;36.42;19.83;98877.47;5071213;28;20031;-48
2022/08/08 06:51:13;;;;;;;9.75;1.85;;;;;;;36.76;19.42;98881.91;5053313;28;20584;-47
2022/08/08 06:53:40;;;;;;;18.88;1.90;;;;;;;37.13;19.00;98877.69;5036737;28;20024;-50
2022/08/08 06:56:07;;;;;;;12.02;2.20;;;;;;;37.26;18.98;98878.97;5054093;28;20019;-48
2022/08/08 06:58:32;;;;;;;17.95;2.17;;;;;;;37.50;18.36;98888.59;5074831;28;20508;-48
2022/08/08 07:01:00;;;;;;;19.00;2.35;;;;;;;37.49;18.83;98878.03;5056862;28;20025;-48
2022/08/08 07:03:59;;;;;;;26.05;2.95;;;;;;;36.98;18.94;98879.41;5056834;28;20029;-48
2022/08/08 07:06:30;;;;;;;13.50;2.80;;;;;;;37.01;19.16;98895.09;5074319;28;20040;-48
2022/08/08 07:09:12;;;;;;;19.02;2.78;;;;;;;36.68;19.54;98888.41;5074704;28;20032;-48
2022/08/08 07:11:46;;;;;;;14.77;1.85;;;;;;;36.29;19.81;98883.16;5056629;28;20056;-47
2022/08/08 07:14:17;;;;;;;15.07;2.50;;;;;;;36.20;20.33;98893.56;5074636;28;20036;-50
2022/08/08 07:17:00;;;;;;;14.23;1.90;;;;;;;36.32;19.98;98896.13;5074476;28;20028;-49
2022/08/08 07:20:16;;;;;;;11.65;1.92;;;;;;;36.59;19.93;98888.66;5074447;28;20058;-49
2022/08/08 07:23:06;;;;;;;9.73;1.80;;;;;;;36.29;20.19;98901.53;5074461;28;20039;-48
2022/08/08 07:25:39;;;;;;;10.88;2.13;;;;;;;36.20;20.50;98901.75;5074442;28;20028;-47
2022/08/08 07:28:15;;;;;;;22.05;2.60;;;;;;;35.77;20.67;98901.03;5050333;28;20158;-47
2022/08/08 07:30:43;;;;;;;11.55;1.98;;;;;;;35.94;20.46;98903.31;5036309;28;20399;-47
2022/08/08 07:33:10;;;;;;;10.25;2.13;;;;;;;36.62;19.71;98898.06;5054450;28;20033;-50
2022/08/08 07:35:38;;;;;;;15.27;2.28;;;;;;;37.46;19.31;98904.22;5054052;28;20013;-50
2022/08/08 07:38:05;;;;;;;13.85;2.13;;;;;;;38.25;18.31;98899.44;5036216;28;20083;-48
2022/08/08 07:40:32;;;;;;;4.88;1.60;;;;;;;38.83;17.86;98899.81;5054047;28;20025;-49
2022/08/08 07:43:00;;;;;;;4.20;1.70;;;;;;;39.61;17.07;98902.06;5036121;28;20029;-49
2022/08/08 07:45:26;;;;;;;4.43;1.60;;;;;;;40.20;16.42;98898.16;5019581;28;20531;-49
2022/08/08 07:47:53;;;;;;;3.63;1.40;;;;;;;40.58;16.26;98896.53;5053892;28;20033;-50
2022/08/08 07:50:20;;;;;;;10.52;2.78;;;;;;;40.91;15.92;98883.44;5053854;28;20025;-50
2022/08/08 07:52:58;;;;;;;17.08;2.08;;;;;;;40.53;16.27;98897.72;5035893;28;20509;-49
2022/08/08 07:55:30;;;;;;;12.35;2.38;;;;;;;40.67;16.19;98893.34;5035955;28;20032;-49
2022/08/08 07:58:11;;;;;;;11.68;1.80;;;;;;;40.51;16.13;98896.56;5035830;28;20021;-50
2022/08/08 08:01:04;;;;;;;8.60;1.80;;;;;;;40.71;16.34;98891.38;5035839;28;20033;-50
2022/08/08 08:03:54;;;;;;;6.80;2.08;;;;;;;40.47;16.27;98898.53;5050452;28;20036;-48
2022/08/08 08:06:21;;;;;;;6.25;1.85;;;;;;;40.33;16.79;98894.63;5043209;28;20048;-49
2022/08/08 08:08:51;;;;;;;11.05;1.90;;;;;;;39.89;16.71;98895.03;5052622;28;20021;-49
2022/08/08 08:11:20;;;;;;;8.73;2.20;;;;;;;39.65;17.12;98894.59;5053566;28;20055;-48
2022/08/08 08:13:52;;;;;;;17.35;2.90;;;;;;;39.01;17.84;98897.19;5053739;28;20017;-48
2022/08/08 08:16:22;;;;;;;20.48;2.42;;;;;;;39.21;18.14;98894.88;5053346;28;20021;-50
2022/08/08 08:19:03;;;;;;;18.08;2.72;;;;;;;39.56;17.70;98899.69;5053368;28;20502;-50
2022/08/08 08:21:40;;;;;;;12.18;2.55;;;;;;;39.40;17.56;98900.03;5053334;28;20029;-51
2022/08/08 08:24:06;;;;;;;21.48;2.35;;;;;;;39.52;17.66;98898.88;5053351;28;20054;-48
2022/08/08 08:26:31;;;;;;;15.95;2.67;;;;;;;39.51;17.66;98900.84;5035297;28;20566;-49
2022/08/08 08:28:57;;;;;;;18.17;2.70;;;;;;;39.46;17.86;98895.75;5065820;28;20146;-48
2022/08/08 08:31:24;;;;;;;6.13;2.10;;;;;;;40.03;17.29;98897.00;5073137;28;20012;-51
2022/08/08 08:33:50;;;;;;;8.45;1.90;;;;;;;40.50;16.96;98893.00;5073100;28;20029;-51
2022/08/08 08:36:17;;;;;;;11.93;2.17;;;;;;;40.83;16.91;98899.22;5054976;28;20032;-51
2022/08/08 08:38:44;;;;;;;15.40;2.75;;;;;;;41.40;16.41;98905.66;5072925;28;20389;-50
2022/08/08 08:41:11;;;;;;;10.63;1.90;;;;;;;42.11;15.68;98896.06;5054914;28;20033;-49
2022/08/08 08:43:38;;;;;;;74.18;6.22;;;;;;;41.66;16.36;98894.06;5072846;28;20035;-49
2022/08/08 08:46:08;;;;;;;23.58;3.30;;;;;;;41.54;16.38;98893.75;5072743;28;20028;-50
2022/08/08 08:48:35;;;;;;;13.65;2.17;;;;;;;42.19;16.08;98896.78;5072682;28;20043;-49
2022/08/08 08:51:03;;;;;;;13.20;2.30;;;;;;;43.18;15.22;98882.25;5072615;28;20025;-50
2022/08/08 08:53:35;;;;;;;29.30;4.43;;;;;;;43.67;15.01;98891.06;5054674;28;20029;-51
2022/08/08 08:56:02;;;;;;;14.68;2.30;;;;;;;43.54;15.23;98890.81;5072619;28;20029;-50
2022/08/08 08:58:34;;;;;;;8.70;2.00;;;;;;;43.55;14.70;98894.34;5072537;28;20047;-51
2022/08/08 09:01:02;;;;;;;12.00;2.50;;;;;;;43.42;14.82;98889.41;5054610;28;20095;-49
2022/08/08 09:03:30;;;;;;;5.35;1.80;;;;;;;43.29;14.93;98878.16;5072334;28;20037;-49
2022/08/08 09:05:57;;;;;;;12.30;3.05;;;;;;;43.45;14.85;98877.53;5054490;28;20082;-49
2022/08/08 09:08:26;;;;;;;5.90;1.98;;;;;;;43.56;14.76;98885.66;5072437;28;20111;-49
2022/08/08 09:10:52;;;;;;;11.95;1.85;;;;;;;43.72;14.67;98882.28;5072364;28;20052;-50
2022/08/08 09:13:20;;;;;;;9.00;1.90;;;;;;;43.95;14.63;98884.25;5072288;28;20021;-48
2022/08/08 09:15:45;;;;;;;19.67;2.40;;;;;;;44.00;14.46;98881.00;5072170;28;20055;-48
2022/08/08 09:18:16;;;;;;;83.22;7.38;;;;;;;44.31;14.42;98877.31;5072277;28;20056;-51
2022/08/08 09:20:45;;;;;;;11.60;1.92;;;;;;;43.82;14.42;98877.75;5072312;28;20513;-51
2022/08/08 09:23:13;;;;;;;14.27;3.20;;;;;;;43.96;14.55;98874.75;5054258;28;20078;-50
2022/08/08 09:25:45;;;;;;;8.50;2.13;;;;;;;44.36;14.25;98879.59;5072033;28;20013;-50
2022/08/08 09:28:11;;;;;;;108.38;9.77;;;;;;;44.60;14.45;98878.34;5071875;28;20044;-49
2022/08/08 09:30:42;;;;;;;30.52;3.65;;;;;;;44.98;13.68;98875.19;5072057;28;20056;-48
2022/08/08 09:33:10;;;;;;;9.65;2.75;;;;;;;44.59;13.89;98867.69;5054120;28;20024;-50
2022/08/08 09:35:38;;;;;;;16.85;2.33;;;;;;;43.96;14.42;98871.22;5053892;28;20025;-48
2022/08/08 09:38:04;;;;;;;19.08;3.50;;;;;;;43.92;14.63;98876.03;5071996;28;20099;-49
2022/08/08 09:40:35;;;;;;;9.27;3.00;;;;;;;43.86;15.03;98868.19;5071935;28;20021;-49
2022/08/08 09:43:21;;;;;;;33.78;5.22;;;;;;;43.13;15.10;98875.22;5071947;28;20021;-49
2022/08/08 09:46:01;;;;;;;25.35;6.78;;;;;;;42.36;15.88;98873.78;5071913;28;20035;-49
2022/08/08 09:48:37;;;;;;;17.45;3.22;;;;;;;42.48;16.16;98873.25;5071907;28;20024;-49
2022/08/08 09:51:03;;;;;;;14.77;3.38;;;;;;;42.50;15.88;98868.13;5054201;28;20032;-49
2022/08/08 09:53:52;;;;;;;24.80;3.92;;;;;;;42.44;15.84;98875.28;5053752;28;20031;-50
2022/08/08 09:56:19;;;;;;;12.05;2.90;;;;;;;42.10;16.18;98864.97;5071728;28;20031;-49
2022/08/08 09:58:56;;;;;;;7.70;1.65;;;;;;;42.38;15.94;98876.09;5053735;28;20127;-49
2022/08/08 10:01:23;;;;;;;17.25;2.40;;;;;;;42.84;15.17;98864.53;5072049;28;20028;-51
2022/08/08 10:03:50;;;;;;;11.50;1.88;;;;;;;43.18;15.06;98860.94;5071746;28;20107;-49
2022/08/08 10:06:17;;;;;;;11.25;2.15;;;;;;;43.22;14.83;98863.66;5071670;28;20020;-51
2022/08/08 10:08:45;;;;;;;8.48;1.92;;;;;;;43.30;14.86;98867.91;5053605;28;20062;-50
2022/08/08 10:11:11;;;;;;;5.70;1.60;;;;;;;44.01;14.13;98867.94;5071666;28;20021;-51
2022/08/08 10:13:37;;;;;;;4.13;1.42;;;;;;;44.73;13.52;98867.38;5071628;28;20021;-50
2022/08/08 10:16:03;;;;;;;4.07;1.30;;;;;;;45.33;13.39;98860.97;5071489;28;20067;-50
2022/08/08 10:18:34;;;;;;;10.05;1.40;;;;;;;45.30;13.53;98857.09;5071550;28;20025;-51
2022/08/08 10:21:09;;;;;;;7.65;1.50;;;;;;;44.78;13.60;98860.59;5053567;28;20448;-49
2022/08/08 10:23:41;;;;;;;10.77;1.67;;;;;;;43.92;14.32;98862.97;5071473;28;20090;-49
2022/08/08 10:26:23;;;;;;;4.20;1.42;;;;;;;43.61;13.93;98859.53;5053516;28;20506;-49
2022/08/08 10:29:06;;;;;;;8.95;1.98;;;;;;;43.90;13.98;98862.63;5041677;28;20576;-48
2022/08/08 10:34:23;;;;;;;6.78;1.52;;;;;;;42.72;14.86;98859.56;5055395;28;20445;-50
2022/08/08 10:36:51;;;;;;;12.40;1.95;;;;;;;43.09;14.56;98855.94;5055221;28;20398;-48
2022/08/08 10:39:22;;;;;;;8.80;1.65;;;;;;;43.22;14.74;98855.34;5037306;28;20024;-49
2022/08/08 10:42:01;;;;;;;15.00;1.92;;;;;;;43.85;14.11;98844.53;5055162;28;20513;-49
2022/08/08 10:44:40;;;;;;;9.80;1.55;;;;;;;44.22;13.45;98853.75;5037423;28;20029;-48
2022/08/08 10:47:15;;;;;;;12.35;2.17;;;;;;;44.34;13.79;98846.81;5037125;28;20521;-47
2022/08/08 10:50:08;;;;;;;6.97;2.08;;;;;;;44.08;13.42;98859.56;5055307;28;20398;-48
2022/08/08 10:52:41;;;;;;;4.78;1.30;;;;;;;43.76;13.54;98849.81;5055055;28;20017;-49
2022/08/08 10:55:16;;;;;;;4.85;1.35;;;;;;;43.91;13.97;98847.59;5055199;28;20441;-49
2022/08/08 10:57:46;;;;;;;9.68;2.03;;;;;;;44.23;13.49;98846.22;5055059;28;20514;-48
2022/08/08 11:00:13;;;;;;;6.82;1.63;;;;;;;44.06;13.76;98845.34;5054828;28;20029;-49
2022/08/08 11:02:39;;;;;;;10.27;2.08;;;;;;;44.17;13.80;98845.16;5054836;28;20100;-50
2022/08/08 11:05:08;;;;;;;6.40;1.30;;;;;;;44.11;13.84;98853.16;5054801;28;20576;-50
2022/08/08 11:07:39;;;;;;;6.18;1.60;;;;;;;44.10;13.55;98837.78;5036775;28;20569;-49
2022/08/08 11:10:11;;;;;;;2.67;1.30;;;;;;;44.07;13.67;98839.41;5054672;28;20020;-50
2022/08/08 11:13:03;;;;;;;7.03;1.40;;;;;;;44.12;13.47;98838.13;5036678;28;20021;-49
2022/08/08 11:15:33;;;;;;;14.48;1.92;;;;;;;43.62;14.04;98836.22;5050550;28;20037;-48
2022/08/08 11:17:58;;;;;;;9.68;1.55;;;;;;;43.64;14.21;98839.34;5036574;28;20487;-49
2022/08/08 11:20:27;;;;;;;11.55;2.15;;;;;;;43.43;13.70;98846.78;5054423;28;20039;-50
2022/08/08 11:22:58;;;;;;;12.95;2.33;;;;;;;42.96;14.59;98832.06;5036486;28;20025;-47
2022/08/08 11:25:28;;;;;;;7.57;1.35;;;;;;;42.89;14.30;98838.47;5036374;28;20028;-48
2022/08/08 11:27:55;;;;;;;8.63;1.88;;;;;;;42.72;14.49;98836.69;5058037;28;20040;-49
2022/08/08 11:30:30;;;;;;;9.18;1.90;;;;;;;42.73;14.31;98832.75;5074310;28;20028;-50
2022/08/08 11:32:57;;;;;;;7.85;1.60;;;;;;;42.87;14.03;98832.59;5056258;28;20032;-49
2022/08/08 11:35:26;;;;;;;6.88;1.52;;;;;;;43.01;14.22;98835.16;5074174;28;20021;-49
2022/08/08 11:37:52;;;;;;;43.97;4.72;;;;;;;42.93;14.23;98827.38;5074110;28;20241;-50
2022/08/08 11:40:18;;;;;;;28.60;3.08;;;;;;;42.33;14.61;98832.41;5056348;28;20047;-48
2022/08/08 11:42:44;;;;;;;17.40;2.33;;;;;;;42.02;14.29;98830.38;5074090;28;20039;-48
2022/08/08 11:45:11;;;;;;;27.77;3.50;;;;;;;41.82;14.77;98818.34;5074020;28;20486;-49
2022/08/08 11:47:39;;;;;;;26.85;2.50;;;;;;;42.18;14.70;98821.53;5074009;28;20036;-49
2022/08/08 11:50:18;;;;;;;24.98;3.03;;;;;;;42.74;13.71;98821.28;5073906;28;20564;-49
2022/08/08 11:52:45;;;;;;;11.30;1.77;;;;;;;42.97;13.84;98820.59;5073873;28;20045;-49
2022/08/08 11:55:27;;;;;;;19.38;2.88;;;;;;;42.80;14.17;98805.03;5073835;28;20025;-50
2022/08/08 11:58:05;;;;;;;36.58;5.00;;;;;;;42.73;13.64;98800.41;5073822;28;20448;-49
2022/08/08 12:00:31;;;;;;;9.60;1.60;;;;;;;42.68;13.84;98803.59;5055768;28;20020;-51
2022/08/08 12:02:59;;;;;;;23.25;2.25;;;;;;;42.99;13.85;98806.38;5073758;28;20024;-50
2022/08/08 12:05:37;;;;;;;10.55;1.77;;;;;;;42.96;13.74;98798.91;5073630;28;20020;-48
2022/08/08 12:08:03;;;;;;;19.73;2.17;;;;;;;42.76;13.90;98799.56;5073630;28;20039;-48
2022/08/08 12:10:29;;;;;;;10.27;1.50;;;;;;;42.83;13.53;98796.72;5073484;28;20054;-48
2022/08/08 12:13:08;;;;;;;6.97;1.60;;;;;;;43.11;13.27;98796.75;5055504;28;20117;-48